FBKE

Details ICAO FBKE (BBK)
Name KASANE
Region Botswana
Timezone Africa/Gaborone (UTC+2.0)
Plans Departing 5
Arriving 3
Stats Elevation 3,289 ft / 1,002 m (AMSL)
Location -17.832874° 25.162398°
Runways 1
Magnetic Variation 7.174° W
Sunrise 2017-12-12 03:39:07 UTC / 2017-12-12 05:39:07 Local
Sunset 2017-12-12 16:49:51 UTC / 2017-12-12 18:49:51 Local
Advertisement - Login to hide

Runways

ID Width Length Bearing (true) Bearing (mag) Surface Threshold Offset Overrun Length
08 98 ft / 30 m 6,583 ft / 2,007 m 70.81° 77.98° Asphalt 0 ft / 0 m 110 ft / 34 m
26 98 ft / 30 m 6,583 ft / 2,007 m 250.80° 257.97° Asphalt 0 ft / 0 m 110 ft / 34 m

Map

Weather


0- 5 10 15 20 25 30 35+ Temperature / ° C

Clouds and Precipitation
Forecast for 2017-12-12 12:00 UTC. Updated an hour ago

Ground ~20,000 ft ~40,000 ft Winds

METAR

FBKE 121000Z 10008KT 060V140 9999 FEW030 29/17 Q1015

TAF

Not found

Frequencies

Tower 118.60 MHz TWR
Approach 127.20 MHz APP
Warning: Do not use this data for real-world aviation or navigation. No guarantee of current accuracy is given.